עמוד ראשי
METAR-TAF:

METAR-TAF

שדות תעופה :

Kailua-Kona, הוואי, ארצות הברית

קו רוחב: 19-44-27N, קו אורך: 156-03-02W, גובה: 13מטר

תצפית מזג אוויר נוכחית

הדו"ח נערך לפני 48דקות, בשעה 10:53 UTC
רוח 5קשר מכיוון דרום/דרום-מזרח
טמפרטורת 24 צלסיוס
לחות 78%
לחץ 1017 hPa
ראות: 16.1קילומטר
עננים בינוניים בגובה 4300רגל

METAR: PHKO 151053Z AUTO 16005KT 10SM BKN043 24/20 A3003 RMK AO2 SLP168 T02440200

זמן: 01:41 (11:41 UTC)

תחזית

הדו"ח נערך לפני 2 שעות ו 17דקות, בשעה 09:24 UTC
תחזית בתוקף מ 15 ב 09 UTC עד 16 ב 06 UTC
רוח 5קשר מכיוון דרום-מערב
ראות: 10קילומטר
עננים פזורים בגובה 1500רגל
עננים בינוניים בגובה 5000רגל
מ 15 ב 1800UTC
רוח 8קשר מכיוון דרום/דרום-מערב
ראות: 10קילומטר
מעט עננים בגובה 2500רגל
עננים פזורים בגובה 5000רגל
מ 16 ב 0000UTC
רוח 5קשר מכיוון דרום
ראות: 10קילומטר
מעט עננים בגובה 5000רגל
עננים פזורים בגובה 7000רגל

TAF: PHKO 150924Z 1509/1606 23005KT P6SM SCT015 BKN050 FM151800 20008KT P6SM FEW025 SCT050 FM160000 17005KT P6SM FEW050 SCT070

תצפיות ותחזיות מזג אוויר לגבי יותר מ- 4,000 שדות תעופה ברחבי העולם. דוחות METAR ו- TAF.

התחנות הזמינות מסומנות בנקודות צהובות ואדומות על גבי המפה.

העבר את העכבר לנקודה הצבעונית על מנת לראות את שם התחנה.

לאחר מכן, לחץ כדי לראות את תוכן ואת תחזיות מזג האוויר.

כדי לשנות את המפה: לחץ על הכפתורים הירוקים עם הפלוס השחור כדי להתקרב; על הכפתור הירוק עם המקף כדי להתרחק; או בחיצים הירוקים למפות סמוכות.


METAR-TAF: